Time;durP1;ratioP1;P1;durP2;ratioP2;P2;SDS_P1;SDS_P2;PMS_P1;PMS_P2;Temp;Humidity;BMP_temperature;BMP_pressure;BME280_temperature;BME280_humidity;BME280_pressure;Samples;Min_cycle;Max_cycle;Signal;HPM_P1;HPM_P2
2022/08/11 00:00:05;;;;;;;4.80;3.88;;;17.00;99.90;;;;;;4939792;28;20068;-82
2022/08/11 00:02:40;;;;;;;5.10;3.95;;;16.90;99.90;;;;;;4938351;29;20403;-82
2022/08/11 00:05:11;;;;;;;4.53;3.95;;;16.70;99.90;;;;;;4932380;29;20035;-81
2022/08/11 00:07:42;;;;;;;6.50;4.95;;;16.80;99.90;;;;;;4938969;29;20043;-82
2022/08/11 01:31:14;;;;;;;;;;;;;;;;;;;;;
2022/08/11 03:47:42;;;;;;;8.60;7.70;;;13.40;99.90;;;;;;5168879;23;20051;-80
2022/08/11 04:04:02;;;;;;;;;;;;;;;;;;;;;
2022/08/11 04:32:22;;;;;;;;;;;;;;;;;;;;;
2022/08/11 04:39:40;;;;;;;;;;;;;;;;;;;;;
2022/08/11 05:09:24;;;;;;;12.05;10.65;;;13.50;99.90;;;;;;4976700;23;20043;-83
2022/08/11 05:12:35;;;;;;;12.50;11.20;;;13.60;99.90;;;;;;4937908;29;20051;-83
2022/08/11 05:35:45;;;;;;;17.83;15.52;;;15.10;99.90;;;;;;4938429;29;20525;-83
2022/08/11 05:58:03;;;;;;;12.50;11.07;;;16.30;99.90;;;;;;4936859;29;20459;-81
2022/08/11 06:00:30;;;;;;;11.88;10.63;;;16.40;99.90;;;;;;4919132;29;20117;-85
2022/08/11 06:03:02;;;;;;;11.50;10.30;;;16.50;99.90;;;;;;4921464;29;20654;-88
2022/08/11 06:05:37;;;;;;;11.50;10.30;;;16.60;99.90;;;;;;4921274;29;20035;-85
2022/08/11 06:08:06;;;;;;;12.13;9.52;;;16.80;99.90;;;;;;4918442;29;20067;-82
2022/08/11 06:10:34;;;;;;;12.43;10.20;;;16.90;99.90;;;;;;4902936;29;20040;-80
2022/08/11 06:13:01;;;;;;;10.30;9.25;;;17.00;99.90;;;;;;4902955;29;20044;-78
2022/08/11 06:15:28;;;;;;;10.52;9.43;;;17.10;99.90;;;;;;4920871;29;20051;-80
2022/08/11 06:17:56;;;;;;;9.77;8.77;;;17.20;99.90;;;;;;4937051;29;20118;-79
2022/08/11 06:20:22;;;;;;;9.90;8.88;;;17.40;99.90;;;;;;4921459;29;20044;-79
2022/08/11 06:22:56;;;;;;;9.52;8.55;;;17.40;99.90;;;;;;4921459;29;20446;-79
2022/08/11 06:25:30;;;;;;;10.00;8.95;;;17.50;99.90;;;;;;4921567;29;20043;-83
2022/08/11 06:27:56;;;;;;;11.13;8.43;;;17.60;99.90;;;;;;4921601;29;20050;-80
2022/08/11 06:30:38;;;;;;;9.32;8.38;;;17.70;99.90;;;;;;4921710;29;20043;-83
2022/08/11 06:33:08;;;;;;;8.93;8.05;;;17.80;99.90;;;;;;4921565;29;20101;-81
2022/08/11 06:35:55;;;;;;;8.15;7.32;;;18.00;99.90;;;;;;4937328;29;20122;-81
2022/08/11 06:38:52;;;;;;;8.77;7.47;;;18.10;99.90;;;;;;4937153;29;20121;-81
2022/08/11 06:41:31;;;;;;;8.68;7.40;;;18.30;99.90;;;;;;4936583;29;20086;-82
2022/08/11 06:44:12;;;;;;;8.30;7.50;;;18.40;99.90;;;;;;4918077;29;20044;-81
2022/08/11 06:47:01;;;;;;;7.85;6.88;;;18.50;99.90;;;;;;4913905;29;20118;-81
2022/08/11 06:52:33;;;;;;;9.02;6.35;;;18.80;99.90;;;;;;4932636;29;20057;-82
2022/08/11 06:55:07;;;;;;;8.10;6.28;;;18.90;99.90;;;;;;4918124;29;20046;-85
2022/08/11 07:00:29;;;;;;;6.47;5.68;;;19.10;99.90;;;;;;4931816;29;20050;-85
2022/08/11 07:03:02;;;;;;;6.88;5.40;;;19.20;99.90;;;;;;4928976;29;20415;-85
2022/08/11 07:05:54;;;;;;;9.38;5.70;;;19.40;99.90;;;;;;4919309;29;20087;-85
2022/08/11 07:17:27;;;;;;;6.55;4.40;;;20.00;99.90;;;;;;4931597;29;20182;-86
2022/08/11 07:31:40;;;;;;;4.47;3.67;;;20.80;99.90;;;;;;4933792;29;20047;-84
2022/08/11 07:34:12;;;;;;;3.70;3.22;;;21.00;99.90;;;;;;4919018;29;20143;-84
2022/08/11 07:36:54;;;;;;;5.35;3.70;;;21.20;99.90;;;;;;4937034;29;20043;-85
2022/08/11 07:39:30;;;;;;;4.20;2.90;;;21.30;99.90;;;;;;4918019;29;20049;-84
2022/08/11 07:41:58;;;;;;;4.60;3.08;;;21.40;99.90;;;;;;4911422;29;20165;-84
2022/08/11 07:44:28;;;;;;;5.18;3.10;;;21.50;99.90;;;;;;4911463;29;20439;-83
2022/08/11 07:52:30;;;;;;;6.57;2.92;;;21.70;99.90;;;;;;4936121;29;20113;-82
2022/08/11 07:55:01;;;;;;;4.82;2.70;;;21.90;99.90;;;;;;4935390;29;20130;-84
2022/08/11 08:20:11;;;;;;;4.72;2.30;;;22.90;95.70;;;;;;4939048;29;20054;-85
2022/08/11 08:22:38;;;;;;;3.35;2.20;;;23.20;95.00;;;;;;4923966;29;20455;-85
2022/08/11 08:25:05;;;;;;;3.55;1.90;;;23.40;94.30;;;;;;4922735;29;20388;-86
2022/08/11 08:27:33;;;;;;;3.75;1.80;;;23.90;94.30;;;;;;4923757;29;20439;-87
2022/08/11 08:32:43;;;;;;;5.10;1.40;;;25.70;90.60;;;;;;4939553;29;20073;-85
2022/08/11 08:35:10;;;;;;;2.28;1.40;;;26.80;90.50;;;;;;4923410;29;20035;-86
2022/08/11 08:37:36;;;;;;;1.63;1.42;;;27.50;85.40;;;;;;4923252;29;20043;-86
2022/08/11 08:40:04;;;;;;;3.78;1.25;;;28.20;83.90;;;;;;4922852;29;20050;-86
2022/08/11 08:42:34;;;;;;;2.10;1.35;;;28.80;81.10;;;;;;4939116;29;20044;-86
2022/08/11 08:45:09;;;;;;;3.72;1.70;;;29.30;77.60;;;;;;4923296;29;20054;-86
2022/08/11 08:47:41;;;;;;;2.58;1.17;;;29.70;71.40;;;;;;4939046;29;20050;-86
2022/08/11 08:50:20;;;;;;;3.25;1.45;;;30.10;71.40;;;;;;4921842;29;20484;-86
2022/08/11 08:52:57;;;;;;;2.33;1.30;;;30.60;67.50;;;;;;4922984;29;20039;-86
2022/08/11 08:55:24;;;;;;;1.63;1.10;;;31.10;67.30;;;;;;4923677;29;20058;-84
2022/08/11 08:57:53;;;;;;;2.55;1.10;;;31.50;65.40;;;;;;4923074;29;20066;-83
2022/08/11 09:00:20;;;;;;;2.80;1.42;;;31.60;62.30;;;;;;4923599;29;20039;-83
2022/08/11 09:02:46;;;;;;;2.03;1.10;;;31.70;62.00;;;;;;4938978;29;20170;-83
2022/08/11 09:05:15;;;;;;;1.33;1.00;;;31.70;59.60;;;;;;4921599;29;20038;-83
2022/08/11 09:07:41;;;;;;;2.08;1.10;;;31.70;59.30;;;;;;4921591;29;20039;-84
2022/08/11 09:10:09;;;;;;;1.20;0.90;;;31.60;57.20;;;;;;4923004;29;20468;-84
2022/08/11 09:12:38;;;;;;;2.20;1.10;;;31.50;56.30;;;;;;4923237;29;20042;-83
2022/08/11 09:15:06;;;;;;;1.50;1.10;;;31.50;57.00;;;;;;4922921;29;20376;-84
2022/08/11 09:17:42;;;;;;;2.05;0.95;;;31.70;56.30;;;;;;4921857;29;20039;-86
2022/08/11 09:20:13;;;;;;;2.70;1.10;;;31.80;53.40;;;;;;4922317;29;20043;-84
2022/08/11 09:28:15;;;;;;;2.72;0.98;;;31.70;53.00;;;;;;4938272;29;20047;-84
2022/08/11 09:30:43;;;;;;;2.28;0.90;;;31.70;53.00;;;;;;4922837;29;20040;-84
2022/08/11 09:33:12;;;;;;;1.60;1.00;;;31.70;52.00;;;;;;4922134;29;20050;-86
2022/08/11 09:35:42;;;;;;;2.05;0.93;;;31.60;51.00;;;;;;4922773;29;20102;-82
2022/08/11 09:40:55;;;;;;;1.33;0.73;;;31.60;48.80;;;;;;4938290;29;20047;-86
2022/08/11 09:46:08;;;;;;;1.70;0.88;;;31.50;51.20;;;;;;4919205;29;20047;-85
2022/08/11 09:48:38;;;;;;;1.83;1.00;;;31.70;49.40;;;;;;4918947;29;20036;-84
2022/08/11 09:51:05;;;;;;;3.65;0.95;;;31.70;47.70;;;;;;4919084;29;20122;-84
2022/08/11 09:53:39;;;;;;;3.00;1.15;;;31.60;48.10;;;;;;4918950;29;20122;-85
2022/08/11 09:58:53;;;;;;;1.70;1.08;;;31.70;47.80;;;;;;4937378;29;20039;-84
2022/08/11 10:01:26;;;;;;;2.45;1.30;;;31.80;48.50;;;;;;4919878;29;20106;-84
2022/08/11 10:03:59;;;;;;;2.42;1.23;;;31.90;46.70;;;;;;4937833;29;20416;-84
2022/08/11 10:09:18;;;;;;;2.08;1.23;;;31.70;47.10;;;;;;4935975;29;20474;-85
2022/08/11 10:11:45;;;;;;;1.70;0.80;;;31.70;47.20;;;;;;4937010;29;20047;-85
2022/08/11 10:16:56;;;;;;;2.53;1.40;;;31.80;47.50;;;;;;4937330;28;20073;-86
2022/08/11 10:19:23;;;;;;;1.70;1.05;;;31.90;46.70;;;;;;4921984;29;20093;-86
2022/08/11 10:27:57;;;;;;;2.22;1.20;;;32.00;47.60;;;;;;4933482;28;20042;-85
2022/08/11 10:36:05;;;;;;;2.95;1.30;;;32.20;45.70;;;;;;4937179;29;20075;-80
2022/08/11 10:38:31;;;;;;;1.40;1.30;;;32.10;46.30;;;;;;4937055;29;20050;-82
2022/08/11 10:43:42;;;;;;;2.33;1.20;;;32.10;45.90;;;;;;4937023;29;20569;-78
2022/08/11 10:48:56;;;;;;;2.28;1.13;;;32.40;45.80;;;;;;4936195;29;20054;-78
2022/08/11 10:59:41;;;;;;;1.58;1.00;;;32.90;47.80;;;;;;4940240;29;20137;-79
2022/08/11 11:02:13;;;;;;;1.40;1.20;;;33.40;46.10;;;;;;4936207;29;20055;-79
2022/08/11 11:05:15;;;;;;;1.77;0.90;;;33.50;45.50;;;;;;4935664;29;20046;-79
2022/08/11 11:07:51;;;;;;;1.63;1.08;;;33.50;44.20;;;;;;4936842;29;20047;-80
2022/08/11 11:10:17;;;;;;;1.52;1.10;;;33.20;45.20;;;;;;4936342;29;20039;-81
2022/08/11 11:18:23;;;;;;;2.42;1.20;;;33.40;45.00;;;;;;4936529;29;20091;-83
2022/08/11 11:20:57;;;;;;;1.85;1.10;;;33.30;45.20;;;;;;4921394;29;20051;-83
2022/08/11 11:23:54;;;;;;;2.33;1.10;;;33.40;43.90;;;;;;4920387;29;20043;-82
2022/08/11 11:26:30;;;;;;;1.55;0.95;;;33.40;43.80;;;;;;4935166;29;20032;-84
2022/08/11 11:29:15;;;;;;;1.42;1.02;;;33.20;45.40;;;;;;4913763;29;20407;-84
2022/08/11 11:32:11;;;;;;;1.35;0.90;;;33.40;45.70;;;;;;4945883;29;20039;-83
2022/08/11 11:35:13;;;;;;;1.90;0.95;;;33.90;44.40;;;;;;4935608;29;20043;-83
2022/08/11 11:37:41;;;;;;;3.85;1.10;;;34.00;42.90;;;;;;4919655;29;20399;-82
2022/08/11 11:40:14;;;;;;;1.63;1.10;;;33.90;42.60;;;;;;4937346;29;20057;-83
2022/08/11 11:42:42;;;;;;;3.10;1.17;;;33.80;43.30;;;;;;4923676;29;20039;-83
2022/08/11 11:45:09;;;;;;;1.50;1.02;;;33.70;43.30;;;;;;4923865;29;20051;-79
2022/08/11 11:47:36;;;;;;;1.55;0.82;;;33.70;44.60;;;;;;4921924;29;20035;-80
2022/08/11 11:50:05;;;;;;;2.13;1.10;;;34.00;44.10;;;;;;4924023;29;20066;-80
2022/08/11 11:52:31;;;;;;;1.30;0.88;;;34.20;42.60;;;;;;4922870;29;20039;-79
2022/08/11 11:54:59;;;;;;;4.07;1.05;;;34.10;42.50;;;;;;4939886;29;20408;-79
2022/08/11 12:03:10;;;;;;;1.98;0.80;;;34.40;44.00;;;;;;4925957;29;20556;-78
2022/08/11 12:05:36;;;;;;;1.38;0.93;;;34.70;42.60;;;;;;4939894;29;20039;-78
2022/08/11 12:08:14;;;;;;;1.25;0.85;;;34.80;41.50;;;;;;4938259;29;20035;-81
2022/08/11 12:10:44;;;;;;;0.80;0.80;;;34.40;41.60;;;;;;4923963;29;20039;-79
2022/08/11 12:15:56;;;;;;;0.88;0.80;;;34.20;42.50;;;;;;4939760;29;20050;-79
2022/08/11 12:18:22;;;;;;;2.28;1.10;;;34.40;43.20;;;;;;4939770;29;20047;-79
2022/08/11 12:20:48;;;;;;;3.17;1.10;;;34.80;44.00;;;;;;4939696;29;20047;-79
2022/08/11 12:28:44;;;;;;;0.75;0.75;;;35.30;41.70;;;;;;4937416;29;20043;-81
2022/08/11 12:31:11;;;;;;;1.25;0.93;;;35.40;40.70;;;;;;4937795;29;20110;-81
2022/08/11 12:33:39;;;;;;;1.83;0.80;;;35.30;40.40;;;;;;4931205;29;20035;-81
2022/08/11 12:36:07;;;;;;;1.10;1.00;;;35.10;40.70;;;;;;4938942;29;20090;-80
2022/08/11 12:38:34;;;;;;;1.30;1.10;;;35.00;40.50;;;;;;4923399;29;20428;-80
2022/08/11 12:46:34;;;;;;;1.17;1.00;;;35.00;40.60;;;;;;4939146;29;20118;-81
2022/08/11 12:52:00;;;;;;;0.98;0.88;;;34.70;40.00;;;;;;4938177;29;20105;-79
2022/08/11 12:54:32;;;;;;;1.55;1.02;;;34.50;39.70;;;;;;4923353;28;20070;-81
2022/08/11 13:05:20;;;;;;;1.17;0.82;;;34.20;40.40;;;;;;4920172;29;20119;-81
2022/08/11 13:07:47;;;;;;;1.63;0.88;;;34.50;40.80;;;;;;4913708;29;20106;-83
2022/08/11 13:12:46;;;;;;;1.20;0.90;;;34.80;41.40;;;;;;4918531;29;20031;-84
2022/08/11 13:13:07;;;;;;;1.17;0.90;;;35.20;40.50;;;;;;4931511;29;20051;-81
2022/08/11 13:15:35;;;;;;;1.67;1.10;;;35.20;39.70;;;;;;4919504;29;20492;-82
2022/08/11 13:18:03;;;;;;;1.80;0.90;;;35.00;39.40;;;;;;4935400;29;20073;-82
2022/08/11 13:20:29;;;;;;;2.35;0.98;;;34.80;39.60;;;;;;4921892;29;20067;-81
2022/08/11 13:22:57;;;;;;;1.88;0.90;;;34.80;40.00;;;;;;4921300;29;20071;-80
2022/08/11 13:25:25;;;;;;;1.63;0.90;;;35.00;40.20;;;;;;4935872;29;20039;-80
2022/08/11 13:27:54;;;;;;;2.20;0.90;;;35.20;40.10;;;;;;4920753;29;20123;-81
2022/08/11 13:33:13;;;;;;;1.00;0.85;;;35.40;39.20;;;;;;4935287;29;20050;-81
2022/08/11 13:35:40;;;;;;;1.52;1.00;;;35.50;39.00;;;;;;4935995;29;20090;-81
2022/08/11 13:38:10;;;;;;;1.35;0.80;;;35.60;39.20;;;;;;4935192;29;20049;-81
2022/08/11 13:40:36;;;;;;;1.42;0.80;;;35.60;40.20;;;;;;4919122;29;20070;-81
2022/08/11 13:43:01;;;;;;;2.60;1.10;;;35.90;39.90;;;;;;4913555;29;20043;-81
2022/08/11 13:45:27;;;;;;;1.20;1.10;;;36.00;40.20;;;;;;4919504;29;20050;-81
2022/08/11 13:47:56;;;;;;;1.00;0.93;;;36.00;39.60;;;;;;4919345;29;20039;-81
2022/08/11 13:51:29;;;;;;;2.03;0.82;;;35.80;39.50;;;;;;4908533;29;20504;-81
2022/08/11 13:53:11;;;;;;;1.02;0.90;;;35.50;39.60;;;;;;4937303;29;20039;-80
2022/08/11 13:55:38;;;;;;;2.80;0.90;;;35.30;39.40;;;;;;4921241;29;20043;-82
2022/08/11 13:58:04;;;;;;;2.40;1.00;;;35.10;39.70;;;;;;4922173;29;20040;-80
2022/08/11 14:00:30;;;;;;;2.13;0.93;;;34.90;39.30;;;;;;4921301;29;20058;-80
2022/08/11 14:02:57;;;;;;;1.98;1.10;;;34.50;39.80;;;;;;4920943;29;20492;-81
2022/08/11 14:05:27;;;;;;;1.50;1.00;;;34.40;39.80;;;;;;4921507;29;20039;-81
2022/08/11 14:08:00;;;;;;;0.88;0.80;;;34.20;40.20;;;;;;4936685;29;20479;-81
2022/08/11 14:10:29;;;;;;;0.93;0.90;;;34.10;40.70;;;;;;4937373;29;20489;-81
2022/08/11 14:15:47;;;;;;;1.92;0.85;;;34.30;41.50;;;;;;4936978;29;20110;-82
2022/08/11 14:18:24;;;;;;;1.52;0.98;;;34.50;41.30;;;;;;4921361;29;20039;-82
2022/08/11 14:23:41;;;;;;;2.38;0.85;;;34.70;41.50;;;;;;4945117;28;20130;-81
2022/08/11 14:26:27;;;;;;;1.27;1.17;;;34.80;41.60;;;;;;4936621;29;20094;-81
2022/08/11 14:29:08;;;;;;;2.53;1.13;;;34.90;40.70;;;;;;4920246;29;20125;-82
2022/08/11 14:31:37;;;;;;;2.03;0.93;;;34.80;40.20;;;;;;4920915;29;20039;-82
2022/08/11 14:34:06;;;;;;;0.80;0.80;;;34.60;41.10;;;;;;4920595;29;20069;-81
2022/08/11 14:36:37;;;;;;;2.40;1.10;;;34.60;41.20;;;;;;4918219;29;20043;-81
2022/08/11 14:39:10;;;;;;;1.80;0.70;;;34.70;40.50;;;;;;4920865;29;20480;-81
2022/08/11 14:47:06;;;;;;;1.50;1.00;;;33.90;40.20;;;;;;4936209;28;20046;-80
2022/08/11 14:49:36;;;;;;;3.47;0.98;;;33.70;40.40;;;;;;4919123;29;20043;-82
2022/08/11 14:52:06;;;;;;;1.58;0.93;;;33.60;41.00;;;;;;4935739;29;20063;-82
2022/08/11 14:57:19;;;;;;;2.03;0.90;;;33.50;40.80;;;;;;4930905;29;20058;-81
2022/08/11 14:59:50;;;;;;;1.42;0.90;;;33.40;40.90;;;;;;4920130;29;20039;-81
2022/08/11 15:05:04;;;;;;;1.77;0.90;;;33.10;41.20;;;;;;4931209;29;20039;-81
2022/08/11 15:07:31;;;;;;;1.88;0.88;;;33.00;40.70;;;;;;4935490;29;20042;-80
2022/08/11 15:10:04;;;;;;;1.52;0.85;;;32.80;40.90;;;;;;4920154;29;20114;-81
2022/08/11 15:12:31;;;;;;;1.80;1.00;;;32.40;41.00;;;;;;4915336;29;20054;-79
2022/08/11 15:17:42;;;;;;;1.17;0.80;;;31.80;41.70;;;;;;4926407;29;20448;-79
2022/08/11 15:25:52;;;;;;;1.40;0.90;;;31.20;42.40;;;;;;4936236;29;20563;-80
2022/08/11 15:39:28;;;;;;;2.78;0.88;;;30.70;43.30;;;;;;4935747;29;20186;-84
2022/08/11 15:47:56;;;;;;;1.90;0.88;;;30.40;43.40;;;;;;4934568;29;20466;-77
2022/08/11 15:50:29;;;;;;;1.63;0.90;;;30.40;43.30;;;;;;4937027;29;20032;-80
2022/08/11 15:53:04;;;;;;;1.77;1.10;;;30.30;43.30;;;;;;4920704;29;20047;-81
2022/08/11 15:55:33;;;;;;;1.48;0.95;;;30.30;43.30;;;;;;4936722;29;20476;-80
2022/08/11 16:06:28;;;;;;;1.83;0.93;;;30.10;44.30;;;;;;4930486;29;20062;-80
2022/08/11 16:08:58;;;;;;;1.17;1.00;;;30.00;44.70;;;;;;4935839;29;20051;-82
2022/08/11 16:11:25;;;;;;;6.40;1.55;;;30.00;45.30;;;;;;4935751;29;20027;-80
2022/08/11 16:16:38;;;;;;;1.85;1.20;;;29.90;45.60;;;;;;4933705;29;20142;-82
2022/08/11 16:19:08;;;;;;;0.90;0.90;;;29.90;45.80;;;;;;4916970;29;20058;-83
2022/08/11 16:21:38;;;;;;;1.15;0.88;;;29.80;46.10;;;;;;4935907;29;20035;-82
2022/08/11 16:24:10;;;;;;;2.40;0.98;;;29.80;46.30;;;;;;4920455;29;20054;-82
2022/08/11 16:26:39;;;;;;;1.20;1.05;;;29.80;46.50;;;;;;4920860;29;20046;-82
2022/08/11 16:29:06;;;;;;;2.35;0.80;;;29.70;46.60;;;;;;4922820;29;20036;-82
2022/08/11 16:31:35;;;;;;;2.55;1.02;;;29.70;46.80;;;;;;4954608;29;20472;-81
2022/08/11 16:34:02;;;;;;;1.55;1.20;;;29.70;47.30;;;;;;4935841;29;20086;-80
2022/08/11 16:39:17;;;;;;;1.40;1.00;;;29.60;47.00;;;;;;4932649;29;20062;-79
2022/08/11 16:47:16;;;;;;;1.58;1.20;;;29.40;47.90;;;;;;4936791;29;20047;-80
2022/08/11 16:49:52;;;;;;;1.75;1.10;;;29.30;48.00;;;;;;4935220;29;20036;-80
2022/08/11 16:52:19;;;;;;;3.33;1.00;;;29.30;48.00;;;;;;4937102;29;20050;-79
2022/08/11 16:54:47;;;;;;;1.63;1.23;;;29.30;47.80;;;;;;4937463;29;20054;-80
2022/08/11 17:00:05;;;;;;;1.52;1.00;;;29.20;47.90;;;;;;4938086;29;20051;-78
2022/08/11 17:14:34;;;;;;;1.27;1.15;;;29.00;47.70;;;;;;4936240;29;20522;-78
2022/08/11 17:17:01;;;;;;;2.97;1.10;;;28.90;47.90;;;;;;4926001;29;20031;-78
2022/08/11 17:19:32;;;;;;;1.98;1.17;;;28.90;47.90;;;;;;4930847;29;20054;-79
2022/08/11 17:24:46;;;;;;;1.75;1.00;;;28.80;48.40;;;;;;4938189;29;20077;-80
2022/08/11 17:27:17;;;;;;;3.03;1.15;;;28.70;48.50;;;;;;4938760;29;20499;-80
2022/08/11 17:29:50;;;;;;;3.05;1.00;;;28.60;48.80;;;;;;4919423;29;20051;-86
2022/08/11 17:35:31;;;;;;;1.52;1.00;;;28.50;49.20;;;;;;4947949;29;20054;-81
2022/08/11 17:38:05;;;;;;;2.42;1.13;;;28.50;49.70;;;;;;4921012;29;20035;-80
2022/08/11 17:40:37;;;;;;;2.05;1.40;;;28.40;50.30;;;;;;4938715;29;20054;-79
2022/08/11 17:48:36;;;;;;;1.88;1.40;;;28.10;51.70;;;;;;4938203;29;20039;-80
2022/08/11 17:51:09;;;;;;;2.35;1.17;;;28.10;52.20;;;;;;4938096;29;20058;-79
2022/08/11 18:01:55;;;;;;;3.97;1.52;;;27.80;53.10;;;;;;4937950;29;20086;-81
2022/08/11 18:04:22;;;;;;;3.15;1.20;;;27.70;53.30;;;;;;4922160;29;20035;-80
2022/08/11 18:06:52;;;;;;;3.90;1.30;;;27.70;53.50;;;;;;4937537;28;20043;-80
